.
WxDataArchive / Data Records for 2015-05-12
2015-05-11 May 2015 2015-05-13

Data Records for Tuesday, 12 May 2015

Time	Temp	Chill	HIndex	Humid	Dewpt	 Wind 	HiWind	WindDir	Rain 	Barom
-----	----	-----	------	-----	-----	------	------	-------	-----	-----
00:00	63.2	63.2	63.2	68	52.5	0	3	315	0.00	29.860 
00:05	62.9	62.9	62.9	69	52.6	0	3	315	0.00	29.860 
00:10	62.7	62.7	62.7	69	52.4	0	3	315	0.00	29.860 
00:15	62.6	62.6	62.6	69	52.3	1	4	292	0.00	29.859 
00:20	62.3	62.3	62.3	70	52.4	0	3	292	0.00	29.859 
00:25	62.1	62.1	62.1	70	52.2	0	3	292	0.00	29.859 
00:30	61.8	61.8	61.8	70	51.9	1	4	292	0.00	29.861 
00:35	61.6	61.6	61.6	71	52.1	0	3	292	0.00	29.861 
00:40	61.5	61.5	61.5	70	51.6	1	3	292	0.00	29.861 
00:45	61.3	61.3	61.3	70	51.4	0	2	292	0.00	29.862 
00:50	61.0	61.0	61.0	71	51.5	0	2	292	0.00	29.862 
00:55	60.9	60.9	60.9	71	51.4	0	2	292	0.00	29.862 
01:00	60.7	60.7	60.7	71	51.2	1	3	315	0.00	29.866 
01:05	60.7	60.7	60.7	71	51.2	1	4	315	0.00	29.866 
01:10	60.5	60.5	60.5	71	51.0	1	4	315	0.00	29.866 
01:15	60.4	60.4	60.4	71	50.9	1	4	292	0.00	29.876 
01:20	60.2	60.2	60.2	71	50.8	1	6	292	0.00	29.876 
01:25	60.1	60.1	60.1	71	50.7	1	4	292	0.00	29.876 
01:30	60.1	60.1	60.1	71	50.7	1	4	292	0.00	29.885 
01:35	59.9	59.9	59.9	72	50.8	1	3	292	0.00	29.885 
01:40	59.8	59.8	59.8	72	50.8	0	3	292	0.00	29.885 
01:45	59.5	59.5	59.5	73	50.8	0	2	292	0.00	29.889 
01:50	59.3	59.3	59.3	73	50.6	1	3	248	0.00	29.889 
01:55	59.2	59.2	59.2	73	50.5	1	3	248	0.00	29.889 
02:00	59.0	59.0	59.0	73	50.4	0	3	270	0.00	29.893 
02:05	58.7	58.7	58.7	73	50.1	0	2	270	0.00	29.893 
02:10	58.6	58.6	58.6	73	50.0	1	3	270	0.00	29.893 
02:15	58.4	58.4	58.4	73	49.8	2	5	292	0.00	29.899 
02:20	58.4	58.4	58.4	73	49.8	2	3	292	0.00	29.899 
02:25	58.3	58.3	58.3	73	49.7	2	5	292	0.00	29.899 
02:30	57.8	57.8	57.8	72	48.8	3	6	270	0.00	29.903 
02:35	57.5	57.5	57.5	71	48.2	4	11	270	0.00	29.903 
02:40	57.0	57.0	57.0	69	46.9	3	9	270	0.00	29.903 
02:45	56.7	56.7	56.7	67	45.9	2	6	292	0.00	29.908 
02:50	56.5	56.5	56.5	68	46.1	2	5	270	0.00	29.908 
02:55	56.2	56.2	56.2	68	45.8	3	5	270	0.00	29.908 
03:00	56.0	56.0	56.0	68	45.6	1	4	270	0.00	29.909 
03:05	55.7	55.7	55.7	69	45.7	1	3	270	0.00	29.909 
03:10	55.4	55.4	55.4	70	45.8	1	3	270	0.00	29.909 
03:15	55.3	55.3	55.3	71	46.1	1	3	270	0.00	29.913 
03:20	55.1	55.1	55.1	72	46.2	1	2	270	0.00	29.913 
03:25	54.8	54.8	54.8	72	45.9	1	4	270	0.00	29.913 
03:30	54.8	54.8	54.8	71	45.6	2	4	270	0.00	29.911 
03:35	54.8	54.8	54.8	70	45.2	1	3	270	0.00	29.911 
03:40	54.7	54.7	54.7	71	45.5	0	3	270	0.00	29.911 
03:45	54.5	54.5	54.5	70	44.9	1	4	270	0.00	29.915 
03:50	54.4	54.4	54.4	70	44.8	1	5	270	0.00	29.915 
03:55	54.4	54.4	54.4	70	44.8	0	4	270	0.00	29.915 
04:00	54.1	54.1	54.1	70	44.5	1	6	270	0.00	29.919 
04:05	54.1	54.1	54.1	70	44.5	1	6	270	0.00	29.919 
04:10	54.1	54.1	54.1	70	44.5	1	3	270	0.00	29.919 
04:15	53.9	53.9	53.9	71	44.7	1	3	270	0.00	29.915 
04:20	53.8	53.8	53.8	71	44.6	0	2	270	0.00	29.915 
04:25	53.6	53.6	53.6	72	44.8	0	1	270	0.00	29.915 
04:30	53.5	53.5	53.5	73	45.1	0	1	270	0.00	29.913 
04:35	53.3	53.3	53.3	74	45.2	0	4	270	0.00	29.913 
04:40	53.2	53.2	53.2	74	45.1	0	2	270	0.00	29.913 
04:45	53.1	53.1	53.1	74	45.0	0	3	270	0.00	29.915 
04:50	52.9	52.9	52.9	74	44.8	0	3	270	0.00	29.915 
04:55	52.9	52.9	52.9	74	44.8	1	4	315	0.00	29.915 
05:00	52.8	52.8	52.8	74	44.7	0	3	315	0.00	29.916 
05:05	52.8	52.8	52.8	74	44.7	0	3	315	0.00	29.916 
05:10	52.6	52.6	52.6	74	44.6	0	2	315	0.00	29.916 
05:15	52.6	52.6	52.6	74	44.6	0	1	315	0.00	29.922 
05:20	52.5	52.5	52.5	74	44.5	0	2	315	0.00	29.922 
05:25	52.3	52.3	52.3	74	44.3	1	3	315	0.00	29.922 
05:30	52.3	52.3	52.3	74	44.3	0	3	315	0.00	29.924 
05:35	52.3	52.3	52.3	74	44.3	0	1	338	0.00	29.924 
05:40	52.2	52.2	52.2	74	44.2	0	3	338	0.00	29.924 
05:45	52.2	52.2	52.2	73	43.8	1	3	338	0.00	29.926 
05:50	52.2	52.2	52.2	74	44.2	0	3	112	0.00	29.926 
05:55	52.0	52.0	52.0	74	44.0	0	1	112	0.00	29.926 
06:00	51.9	51.9	51.9	74	43.9	1	3	112	0.00	29.925 
06:05	51.9	51.9	51.9	73	43.5	1	6	270	0.00	29.925 
06:10	51.9	51.9	51.9	73	43.5	1	4	270	0.00	29.925 
06:15	51.9	51.9	51.9	74	43.9	1	3	270	0.00	29.930 
06:20	51.7	51.7	51.7	74	43.7	1	3	270	0.00	29.930 
06:25	51.9	51.9	51.9	74	43.9	1	4	270	0.00	29.930 
06:30	51.9	51.9	51.9	74	43.9	0	3	292	0.00	29.931 
06:35	51.9	51.9	51.9	75	44.2	1	4	292	0.00	29.931 
06:40	51.9	51.9	51.9	74	43.9	1	3	292	0.00	29.931 
06:45	52.0	52.0	52.0	74	44.0	1	5	292	0.00	29.930 
06:50	52.0	52.0	52.0	75	44.3	1	4	270	0.00	29.930 
06:55	52.0	52.0	52.0	75	44.3	0	2	270	0.00	29.930 
07:00	52.0	52.0	52.0	76	44.7	0	1	270	0.00	29.939 
07:05	52.0	52.0	52.0	76	44.7	0	4	270	0.00	29.939 
07:10	52.0	52.0	52.0	76	44.7	1	4	270	0.00	29.939 
07:15	52.0	52.0	52.0	76	44.7	1	3	270	0.00	29.941 
07:20	52.2	52.2	52.2	76	44.9	1	4	270	0.00	29.941 
07:25	52.2	52.2	52.2	76	44.9	1	4	270	0.00	29.941 
07:30	52.2	52.2	52.2	76	44.9	0	2	270	0.00	29.942 
07:35	52.2	52.2	52.2	76	44.9	1	4	270	0.00	29.942 
07:40	52.2	52.2	52.2	75	44.5	1	3	270	0.00	29.942 
07:45	52.3	52.3	52.3	75	44.6	1	3	270	0.00	29.955 
07:50	52.3	52.3	52.3	75	44.6	0	2	270	0.00	29.955 
07:55	52.3	52.3	52.3	74	44.3	1	3	270	0.00	29.955 
08:00	52.3	52.3	52.3	75	44.6	0	3	270	0.00	29.957 
08:05	52.3	52.3	52.3	73	43.9	1	5	270	0.00	29.957 
08:10	52.2	52.2	52.2	71	43.1	1	5	248	0.00	29.957 
08:15	52.3	52.3	52.3	70	42.8	1	6	248	0.00	29.960 
08:20	52.3	52.3	52.3	70	42.8	1	3	315	0.00	29.960 
08:25	52.3	52.3	52.3	70	42.8	1	4	292	0.00	29.960 
08:30	52.5	52.5	52.5	69	42.6	1	4	248	0.00	29.964 
08:35	52.5	52.5	52.5	69	42.6	1	4	248	0.00	29.964 
08:40	52.6	52.6	52.6	69	42.7	1	5	248	0.00	29.964 
08:45	52.8	52.8	52.8	68	42.5	2	6	248	0.00	29.965 
08:50	52.8	52.8	52.8	68	42.5	1	5	270	0.00	29.965 
08:55	52.8	52.8	52.8	68	42.5	1	3	270	0.00	29.965 
09:00	52.8	52.8	52.8	68	42.5	1	4	270	0.00	29.970 
09:05	52.6	52.6	52.6	68	42.3	1	4	270	0.00	29.970 
09:10	52.5	52.5	52.5	69	42.6	1	2	270	0.00	29.970 
09:15	52.5	52.5	52.5	68	42.2	1	5	270	0.00	29.974 
09:20	52.5	52.5	52.5	68	42.2	1	4	270	0.00	29.974 
09:25	52.5	52.5	52.5	69	42.6	1	5	248	0.00	29.974 
09:30	52.5	52.5	52.5	68	42.2	2	5	270	0.00	29.977 
09:35	52.6	52.6	52.6	69	42.7	2	6	270	0.00	29.977 
09:40	52.6	52.6	52.6	68	42.3	2	6	270	0.00	29.977 
09:45	52.6	52.6	52.6	67	42.0	2	5	270	0.00	29.974 
09:50	52.8	52.8	52.8	68	42.5	1	4	248	0.00	29.974 
09:55	52.9	52.9	52.9	68	42.6	2	5	270	0.00	29.974 
10:00	53.1	53.1	53.1	68	42.8	2	5	270	0.00	29.980 
10:05	53.3	53.3	53.3	67	42.6	2	6	270	0.00	29.980 
10:10	53.3	53.3	53.3	66	42.2	3	9	248	0.00	29.980 
10:15	53.2	53.2	53.2	66	42.1	3	6	270	0.00	29.989 
10:20	53.1	53.1	53.1	65	41.6	4	8	270	0.00	29.989 
10:25	53.1	53.1	53.1	66	42.0	3	7	270	0.00	29.989 
10:30	53.1	53.1	53.1	65	41.6	2	6	270	0.00	29.993 
10:35	53.1	53.1	53.1	66	42.0	2	5	270	0.00	29.993 
10:40	52.9	52.9	52.9	65	41.5	2	6	270	0.00	29.993 
10:45	52.8	52.8	52.8	65	41.4	2	6	270	0.00	30.001 
10:50	52.8	52.8	52.8	66	41.8	2	6	270	0.00	30.001 
10:55	52.6	52.6	52.6	64	40.8	3	9	270	0.00	30.001 
11:00	52.6	52.6	52.6	65	41.2	2	6	248	0.00	30.005 
11:05	52.9	52.9	52.9	65	41.5	2	7	270	0.00	30.005 
11:10	53.5	53.5	53.5	64	41.6	2	5	248	0.00	30.005 
11:15	54.2	54.2	54.2	66	43.1	2	7	270	0.00	30.004 
11:20	54.8	54.8	54.8	62	42.0	3	7	270	0.00	30.004 
11:25	55.3	55.3	55.3	61	42.1	3	8	270	0.00	30.004 
11:30	55.4	55.4	55.4	61	42.2	3	7	270	0.00	30.006 
11:35	55.1	55.1	55.1	58	40.6	3	6	248	0.00	30.006 
11:40	54.5	54.5	54.5	59	40.5	3	6	270	0.00	30.006 
11:45	54.2	54.2	54.2	59	40.2	4	10	270	0.00	30.010 
11:50	54.4	54.4	54.4	60	40.8	3	6	292	0.00	30.010 
11:55	54.7	54.7	54.7	59	40.7	1	5	248	0.00	30.010 
12:00	54.7	54.7	54.7	58	40.2	2	5	248	0.00	30.020 
12:05	54.4	54.4	54.4	59	40.4	2	6	292	0.00	30.020 
12:10	54.5	54.5	54.5	59	40.5	2	7	270	0.00	30.020 
12:15	54.7	54.7	54.7	58	40.2	3	9	270	0.00	30.023 
12:20	54.8	54.8	54.8	57	39.9	3	11	270	0.00	30.023 
12:25	55.1	55.1	55.1	57	40.1	2	5	270	0.00	30.023 
12:30	55.0	55.0	55.0	56	39.6	3	8	270	0.00	30.023 
12:35	54.7	54.7	54.7	58	40.2	3	6	270	0.00	30.023 
12:40	54.5	54.5	54.5	59	40.5	2	5	248	0.00	30.023 
12:45	54.5	54.5	54.5	59	40.5	2	7	225	0.00	30.025 
12:50	54.5	54.5	54.5	60	40.9	3	6	270	0.00	30.025 
12:55	54.8	54.8	54.8	59	40.7	3	6	292	0.00	30.025 
13:00	54.7	54.7	54.7	58	40.2	4	10	270	0.00	30.027 
13:05	54.5	54.5	54.5	59	40.5	3	7	270	0.00	30.027 
13:10	54.2	54.2	54.2	60	40.6	3	7	270	0.00	30.027 
13:15	54.2	54.2	54.2	61	41.0	2	9	270	0.00	30.041 
13:20	54.1	54.1	54.1	62	41.4	2	9	270	0.00	30.041 
13:25	54.4	54.4	54.4	62	41.7	3	8	270	0.00	30.041 
13:30	54.4	54.4	54.4	62	41.7	3	7	270	0.00	30.044 
13:35	54.7	54.7	54.7	61	41.5	4	9	270	0.00	30.044 
13:40	55.1	55.1	55.1	60	41.5	4	11	270	0.00	30.044 
13:45	55.0	55.0	55.0	61	41.8	4	10	270	0.00	30.041 
13:50	54.4	54.4	54.4	61	41.2	3	10	248	0.00	30.041 
13:55	54.4	54.4	54.4	62	41.7	2	5	248	0.00	30.041 
14:00	54.2	54.2	54.2	62	41.5	4	8	270	0.00	30.046 
14:05	54.1	54.1	54.1	62	41.4	4	7	270	0.00	30.046 
14:10	54.1	54.1	54.1	61	41.0	3	9	270	0.00	30.046 
14:15	54.2	54.2	54.2	62	41.5	2	9	270	0.00	30.059 
14:20	54.1	54.1	54.1	61	41.0	4	9	270	0.00	30.059 
14:25	54.2	54.2	54.2	62	41.5	3	10	270	0.00	30.059 
14:30	54.2	54.2	54.2	61	41.0	3	8	270	0.00	30.061 
14:35	54.1	54.1	54.1	62	41.4	4	7	270	0.00	30.061 
14:40	53.9	53.9	53.9	61	40.8	4	7	270	0.00	30.061 
14:45	53.5	53.5	53.5	61	40.4	5	10	270	0.00	30.074 
14:50	53.3	53.3	53.3	62	40.6	4	9	270	0.00	30.074 
14:55	53.3	53.3	53.3	61	40.2	4	7	270	0.00	30.074 
15:00	53.5	53.5	53.5	60	40.0	4	10	270	0.00	30.078 
15:05	53.2	53.2	53.2	61	40.1	4	10	270	0.00	30.078 
15:10	53.2	53.2	53.2	60	39.7	4	10	270	0.00	30.078 
15:15	53.5	53.5	53.5	61	40.4	2	6	270	0.00	30.087 
15:20	53.5	53.5	53.5	60	40.0	3	8	270	0.00	30.087 
15:25	53.1	53.1	53.1	60	39.6	5	9	270	0.00	30.087 
15:30	52.6	52.6	52.6	60	39.1	4	8	270	0.00	30.098 
15:35	52.5	52.5	52.5	61	39.4	4	10	292	0.00	30.098 
15:40	52.5	52.5	52.5	61	39.4	2	7	270	0.00	30.098 
15:45	52.6	52.6	52.6	60	39.1	3	7	270	0.00	30.103 
15:50	52.3	52.3	52.3	61	39.3	4	9	292	0.00	30.103 
15:55	52.3	52.3	52.3	61	39.3	4	7	270	0.00	30.103 
16:00	52.2	52.2	52.2	61	39.2	3	6	270	0.00	30.105 
16:05	52.2	52.2	52.2	62	39.6	3	7	270	0.00	30.105 
16:10	52.0	52.0	52.0	62	39.4	4	7	270	0.00	30.105 
16:15	52.0	52.0	52.0	62	39.4	2	7	270	0.00	30.113 
16:20	52.0	52.0	52.0	63	39.8	2	6	270	0.00	30.113 
16:25	52.0	52.0	52.0	62	39.4	4	9	270	0.00	30.113 
16:30	52.0	52.0	52.0	62	39.4	3	6	270	0.00	30.114 
16:35	51.9	51.9	51.9	63	39.7	2	6	270	0.00	30.114 
16:40	51.9	51.9	51.9	63	39.7	3	6	270	0.00	30.114 
16:45	51.9	51.9	51.9	63	39.7	2	5	270	0.00	30.120 
16:50	52.0	52.0	52.0	63	39.8	3	6	270	0.00	30.120 
16:55	52.0	52.0	52.0	62	39.4	4	9	270	0.00	30.120 
17:00	52.0	52.0	52.0	62	39.4	3	9	270	0.00	30.119 
17:05	52.0	52.0	52.0	62	39.4	3	6	292	0.00	30.119 
17:10	52.0	52.0	52.0	63	39.8	3	5	270	0.00	30.119 
17:15	52.0	52.0	52.0	63	39.8	2	4	270	0.00	30.120 
17:20	52.0	52.0	52.0	62	39.4	3	7	270	0.00	30.120 
17:25	52.0	52.0	52.0	62	39.4	3	6	270	0.00	30.120 
17:30	52.0	52.0	52.0	62	39.4	4	6	270	0.00	30.122 
17:35	51.9	51.9	51.9	63	39.7	3	6	270	0.00	30.122 
17:40	52.0	52.0	52.0	64	40.2	1	3	270	0.00	30.122 
17:45	52.0	52.0	52.0	65	40.6	1	5	270	0.00	30.128 
17:50	52.0	52.0	52.0	64	40.2	3	6	270	0.00	30.128 
17:55	52.0	52.0	52.0	64	40.2	2	5	270	0.00	30.128 
18:00	52.0	52.0	52.0	64	40.2	2	5	292	0.00	30.132 
18:05	52.2	52.2	52.2	64	40.4	2	4	292	0.00	30.132 
18:10	52.2	52.2	52.2	64	40.4	2	4	292	0.00	30.132 
18:15	52.2	52.2	52.2	65	40.8	2	5	292	0.00	30.136 
18:20	52.2	52.2	52.2	65	40.8	1	4	270	0.00	30.136 
18:25	52.2	52.2	52.2	65	40.8	1	5	270	0.00	30.136 
18:30	52.2	52.2	52.2	65	40.8	1	3	270	0.00	30.132 
18:35	52.2	52.2	52.2	65	40.8	1	4	270	0.00	30.132 
18:40	52.2	52.2	52.2	66	41.2	1	5	292	0.00	30.132 
18:45	52.2	52.2	52.2	66	41.2	2	4	270	0.00	30.142 
18:50	52.0	52.0	52.0	66	41.0	1	3	270	0.00	30.142 
18:55	52.0	52.0	52.0	66	41.0	1	3	270	0.00	30.142 
19:00	52.0	52.0	52.0	66	41.0	1	3	270	0.00	30.145 
19:05	52.0	52.0	52.0	66	41.0	2	6	315	0.00	30.145 
19:10	52.0	52.0	52.0	66	41.0	2	4	270	0.00	30.145 
19:15	52.0	52.0	52.0	66	41.0	1	5	270	0.00	30.152 
19:20	52.0	52.0	52.0	66	41.0	2	5	315	0.00	30.152 
19:25	52.0	52.0	52.0	66	41.0	2	4	292	0.00	30.152 
19:30	52.0	52.0	52.0	67	41.4	1	4	292	0.00	30.157 
19:35	52.0	52.0	52.0	67	41.4	1	2	292	0.00	30.157 
19:40	52.0	52.0	52.0	68	41.8	1	3	292	0.00	30.157 
19:45	52.0	52.0	52.0	68	41.8	0	2	292	0.00	30.162 
19:50	51.9	51.9	51.9	68	41.7	2	3	292	0.00	30.162 
19:55	52.0	52.0	52.0	68	41.8	0	2	292	0.00	30.162 
20:00	51.9	51.9	51.9	69	42.1	0	1	292	0.00	30.166 
20:05	51.9	51.9	51.9	69	42.1	0	2	292	0.00	30.166 
20:10	51.9	51.9	51.9	69	42.1	1	3	292	0.00	30.166 
20:15	51.9	51.9	51.9	69	42.1	0	2	292	0.00	30.172 
20:20	51.9	51.9	51.9	69	42.1	0	1	292	0.00	30.172 
20:25	51.9	51.9	51.9	70	42.4	0	2	292	0.00	30.172 
20:30	51.9	51.9	51.9	70	42.4	0	3	292	0.00	30.175 
20:35	51.9	51.9	51.9	70	42.4	0	2	292	0.00	30.175 
20:40	51.9	51.9	51.9	69	42.1	1	3	292	0.00	30.175 
20:45	51.9	51.9	51.9	69	42.1	1	3	292	0.00	30.176 
20:50	51.9	51.9	51.9	68	41.7	1	2	292	0.00	30.176 
20:55	51.9	51.9	51.9	69	42.1	0	2	292	0.00	30.176 
21:00	51.7	51.7	51.7	69	41.9	1	3	292	0.00	30.186 
21:05	51.7	51.7	51.7	68	41.5	1	3	292	0.00	30.186 
21:10	51.7	51.7	51.7	69	41.9	1	3	292	0.00	30.186 
21:15	51.7	51.7	51.7	69	41.9	1	3	292	0.00	30.193 
21:20	51.7	51.7	51.7	68	41.5	1	3	292	0.00	30.193 
21:25	51.7	51.7	51.7	68	41.5	1	3	292	0.00	30.193 
21:30	51.7	51.7	51.7	68	41.5	1	2	292	0.00	30.202 
21:35	51.6	51.6	51.6	68	41.4	1	4	292	0.00	30.202 
21:40	51.6	51.6	51.6	68	41.4	1	3	292	0.00	30.202 
21:45	51.6	51.6	51.6	67	41.0	1	3	292	0.00	30.206 
21:50	51.6	51.6	51.6	68	41.4	0	2	292	0.00	30.206 
21:55	51.6	51.6	51.6	68	41.4	0	2	292	0.00	30.206 
22:00	51.6	51.6	51.6	68	41.4	0	1	292	0.00	30.209 
22:05	51.4	51.4	51.4	69	41.6	0	2	292	0.00	30.209 
22:10	51.4	51.4	51.4	69	41.6	0	1	292	0.00	30.209 
22:15	51.4	51.4	51.4	69	41.6	0	2	292	0.00	30.213 
22:20	51.4	51.4	51.4	69	41.6	0	1	292	0.00	30.213 
22:25	51.3	51.3	51.3	69	41.5	0	1	292	0.00	30.213 
22:30	51.3	51.3	51.3	69	41.5	0	1	292	0.00	30.220 
22:35	51.3	51.3	51.3	70	41.9	0	0	---	0.00	30.220 
22:40	51.3	51.3	51.3	70	41.9	0	0	---	0.00	30.220 
22:45	51.3	51.3	51.3	70	41.9	0	1	292	0.00	30.221 
22:50	51.1	51.1	51.1	71	42.0	0	0	---	0.00	30.221 
22:55	51.1	51.1	51.1	71	42.0	0	1	292	0.00	30.221 
23:00	51.1	51.1	51.1	72	42.4	0	0	---	0.00	30.221 
23:05	51.0	51.0	51.0	72	42.3	0	0	---	0.00	30.221 
23:10	51.0	51.0	51.0	72	42.3	0	0	---	0.00	30.221 
23:15	51.0	51.0	51.0	73	42.7	0	0	---	0.00	30.220 
23:20	50.8	50.8	50.8	73	42.5	0	0	---	0.00	30.220 
23:25	50.8	50.8	50.8	73	42.5	0	0	---	0.00	30.220 
23:30	50.8	50.8	50.8	74	42.8	0	0	---	0.00	30.222 
23:35	50.7	50.7	50.7	73	42.4	0	0	---	0.00	30.222 
23:40	50.7	50.7	50.7	73	42.4	0	0	---	0.00	30.222 
23:45	50.7	50.7	50.7	74	42.7	0	0	---	0.00	30.222 
23:50	50.7	50.7	50.7	74	42.7	0	0	---	0.00	30.222 
23:55	50.7	50.7	50.7	74	42.7	0	0	---	0.00	30.222 

CoCoRaHS
IN-AL-39
A2 Web Hosting
Creative Commons License
GoDaddy
search engine by freefind advanced

loaded 2018-11-14 03:38:20 • last modified 2010-11-18 10:43:29
Privacy PolicyDisclaimer
• wx.awcolley.com is powered by PmWiki v.2002016 •
• all content (unless otherwise noted) © 2018 A W Colley